Time;durP1;ratioP1;P1;durP2;ratioP2;P2;SDS_P1;SDS_P2;PMS_P1;PMS_P2;Temp;Humidity;BMP_temperature;BMP_pressure;BME280_temperature;BME280_humidity;BME280_pressure;Samples;Min_cycle;Max_cycle;Signal;HPM_P1;HPM_P2
2023/10/10 00:01:10;;;;;;;37.10;15.60;;;;;;;;;;8337282;28;20049;-93
2023/10/10 00:05:18;;;;;;;39.92;15.55;;;;;;;;;;8348673;28;20140;-92
2023/10/10 00:09:23;;;;;;;33.97;15.98;;;;;;;;;;8325280;28;20046;-92
2023/10/10 00:13:26;;;;;;;36.30;15.85;;;;;;;;;;8307252;28;20485;-93
2023/10/10 00:17:34;;;;;;;35.63;16.13;;;;;;;;;;8327989;28;20103;-93
2023/10/10 00:21:40;;;;;;;34.65;16.00;;;;;;;;;;8320383;28;20084;-93
2023/10/10 00:25:47;;;;;;;36.92;16.45;;;;;;;;;;8337580;28;20084;-92
2023/10/10 00:29:50;;;;;;;37.65;17.20;;;;;;;;;;8319093;28;20052;-91
2023/10/10 00:33:54;;;;;;;40.85;17.48;;;;;;;;;;8328617;28;20053;-92
2023/10/10 00:38:02;;;;;;;33.05;14.63;;;;;;;;;;8307417;28;20060;-91
2023/10/10 00:42:40;;;;;;;37.70;16.27;;;;;;;;;;8330926;23;20056;-91
2023/10/10 00:46:44;;;;;;;40.95;19.02;;;;;;;;;;8317834;28;20099;-93
2023/10/10 00:50:51;;;;;;;37.63;17.30;;;;;;;;;;8317976;28;20397;-93
2023/10/10 00:54:55;;;;;;;37.17;16.70;;;;;;;;;;8329511;28;20049;-91
2023/10/10 00:59:03;;;;;;;35.90;16.08;;;;;;;;;;8327083;28;20041;-92
2023/10/10 01:03:20;;;;;;;41.00;15.93;;;;;;;;;;8336454;23;20084;-91
2023/10/10 01:07:25;;;;;;;29.90;13.95;;;;;;;;;;8323314;28;20042;-92
2023/10/10 01:11:30;;;;;;;38.20;16.65;;;;;;;;;;8309963;28;20069;-93
2023/10/10 01:15:35;;;;;;;46.92;18.02;;;;;;;;;;8316555;28;20069;-93
2023/10/10 01:19:38;;;;;;;33.45;14.18;;;;;;;;;;8325702;28;20046;-93
2023/10/10 01:23:46;;;;;;;32.58;15.38;;;;;;;;;;8328635;28;20056;-92
2023/10/10 01:28:02;;;;;;;34.67;14.05;;;;;;;;;;8317121;28;20397;-90
2023/10/10 01:32:05;;;;;;;36.83;15.82;;;;;;;;;;8308190;28;20045;-91
2023/10/10 01:36:19;;;;;;;35.15;16.52;;;;;;;;;;8330729;28;20099;-91
2023/10/10 01:40:28;;;;;;;34.95;15.95;;;;;;;;;;8334929;28;20095;-91
2023/10/10 01:44:32;;;;;;;37.22;16.48;;;;;;;;;;8334434;28;20049;-91
2023/10/10 01:48:37;;;;;;;32.33;14.88;;;;;;;;;;8327023;28;20071;-93
2023/10/10 01:52:45;;;;;;;34.95;14.32;;;;;;;;;;8315473;28;20049;-92
2023/10/10 01:56:53;;;;;;;35.85;14.55;;;;;;;;;;8334345;28;20413;-92
2023/10/10 02:00:56;;;;;;;30.77;14.95;;;;;;;;;;8333900;28;20596;-90
2023/10/10 02:05:11;;;;;;;39.08;15.75;;;;;;;;;;8333999;28;20140;-92
2023/10/10 02:09:27;;;;;;;37.38;16.10;;;;;;;;;;8334457;28;20494;-91
2023/10/10 02:13:47;;;;;;;34.88;15.15;;;;;;;;;;8333665;28;20053;-91
2023/10/10 02:17:54;;;;;;;45.45;17.90;;;;;;;;;;8306643;28;20071;-91
2023/10/10 02:22:13;;;;;;;45.92;19.95;;;;;;;;;;8332940;28;20589;-91
2023/10/10 02:26:23;;;;;;;41.17;18.67;;;;;;;;;;8333233;28;20543;-91
2023/10/10 02:34:56;;;;;;;37.88;17.15;;;;;;;;;;8319115;28;20134;-89
2023/10/10 02:39:18;;;;;;;34.63;15.73;;;;;;;;;;8332692;28;20041;-91
2023/10/10 02:43:33;;;;;;;36.17;14.00;;;;;;;;;;8320007;28;20105;-90
2023/10/10 02:47:38;;;;;;;36.80;15.43;;;;;;;;;;8325738;28;20068;-91
2023/10/10 02:51:43;;;;;;;43.72;19.30;;;;;;;;;;8314453;28;20049;-91
2023/10/10 02:55:50;;;;;;;35.47;16.90;;;;;;;;;;8332318;28;20108;-92
2023/10/10 02:59:59;;;;;;;43.65;18.95;;;;;;;;;;8331710;28;20084;-92
2023/10/10 03:04:03;;;;;;;43.28;19.35;;;;;;;;;;8319297;28;20037;-90
2023/10/10 03:08:14;;;;;;;60.75;27.85;;;;;;;;;;8330587;28;20046;-92
2023/10/10 03:12:18;;;;;;;32.97;16.92;;;;;;;;;;8331587;28;20041;-90
2023/10/10 03:21:12;;;;;;;37.63;17.85;;;;;;;;;;8329585;28;20464;-91
2023/10/10 03:25:23;;;;;;;44.45;17.83;;;;;;;;;;8331715;28;20052;-90
2023/10/10 03:29:37;;;;;;;42.67;20.07;;;;;;;;;;8318917;28;20152;-91
2023/10/10 03:33:44;;;;;;;39.28;18.25;;;;;;;;;;8314990;28;20133;-91
2023/10/10 03:37:54;;;;;;;44.88;19.95;;;;;;;;;;8331559;28;20128;-92
2023/10/10 05:26:56;;;;;;;31.15;15.43;;;;;;;;;;8332766;28;20133;-92
2023/10/10 05:31:02;;;;;;;31.85;14.98;;;;;;;;;;8328575;28;20060;-91
2023/10/10 05:35:11;;;;;;;35.65;17.45;;;;;;;;;;8333246;28;20053;-92
2023/10/10 05:39:20;;;;;;;34.45;16.65;;;;;;;;;;8329041;28;20049;-93
2023/10/10 05:43:33;;;;;;;37.10;19.58;;;;;;;;;;8320740;28;20077;-91
2023/10/10 05:47:37;;;;;;;38.42;17.67;;;;;;;;;;8334832;28;20068;-89
2023/10/10 05:51:40;;;;;;;129.35;52.97;;;;;;;;;;8327407;28;20056;-92
2023/10/10 05:55:50;;;;;;;121.28;46.70;;;;;;;;;;8334975;28;20064;-91
2023/10/10 05:59:53;;;;;;;63.83;26.38;;;;;;;;;;8318276;28;20094;-92
2023/10/10 06:03:57;;;;;;;53.65;20.02;;;;;;;;;;8327573;28;20116;-93
2023/10/10 06:08:01;;;;;;;33.08;14.73;;;;;;;;;;8332833;28;20120;-93
2023/10/10 06:12:09;;;;;;;46.85;26.63;;;;;;;;;;8325230;28;20056;-93
2023/10/10 06:16:27;;;;;;;28.58;16.90;;;;;;;;;;8321125;28;20442;-92
2023/10/10 06:20:31;;;;;;;34.72;19.58;;;;;;;;;;8299436;28;20053;-93
2023/10/10 06:24:34;;;;;;;21.60;12.68;;;;;;;;;;8334403;28;20045;-94
2023/10/10 06:28:45;;;;;;;18.55;11.30;;;;;;;;;;8333966;28;20041;-94
2023/10/10 06:32:48;;;;;;;14.80;9.15;;;;;;;;;;8334382;28;20065;-95
2023/10/10 06:36:52;;;;;;;13.52;8.98;;;;;;;;;;8334187;28;20470;-94
2023/10/10 06:40:55;;;;;;;14.00;9.38;;;;;;;;;;8334520;28;20504;-92
2023/10/10 06:45:07;;;;;;;16.35;10.00;;;;;;;;;;8334826;28;20531;-93
2023/10/10 06:49:12;;;;;;;14.10;8.65;;;;;;;;;;8335196;28;20438;-94
2023/10/10 06:53:28;;;;;;;12.95;8.73;;;;;;;;;;8333421;28;20049;-94
2023/10/10 06:57:38;;;;;;;12.05;7.90;;;;;;;;;;8334037;28;20469;-94
2023/10/10 07:01:45;;;;;;;11.40;7.70;;;;;;;;;;8320761;28;20061;-94
2023/10/10 07:05:48;;;;;;;12.00;8.35;;;;;;;;;;8340417;28;20046;-92
2023/10/10 07:09:57;;;;;;;14.10;7.57;;;;;;;;;;8332352;28;20041;-93
2023/10/10 07:14:01;;;;;;;12.55;8.68;;;;;;;;;;8332391;28;20110;-93
2023/10/10 07:18:23;;;;;;;14.85;9.05;;;;;;;;;;8320333;28;20115;-93
2023/10/10 07:22:25;;;;;;;13.82;9.80;;;;;;;;;;8333291;28;20124;-93
2023/10/10 07:31:17;;;;;;;22.40;17.77;;;;;;;;;;8320280;23;20058;-93
2023/10/10 07:35:25;;;;;;;20.02;13.20;;;;;;;;;;8287985;28;20058;-95
2023/10/10 07:39:36;;;;;;;15.02;10.95;;;;;;;;;;8295842;28;20077;-93
2023/10/10 07:43:39;;;;;;;13.15;9.75;;;;;;;;;;8290599;28;20049;-93
2023/10/10 07:52:16;;;;;;;9.95;7.05;;;;;;;;;;8361902;28;20507;-91
2023/10/10 07:56:22;;;;;;;9.38;6.22;;;;;;;;;;8359462;28;20148;-92
2023/10/10 08:00:35;;;;;;;10.68;8.40;;;;;;;;;;8348878;28;20050;-94
2023/10/10 08:04:47;;;;;;;10.07;5.85;;;;;;;;;;8374846;28;20076;-94
2023/10/10 08:09:18;;;;;;;18.80;16.98;;;;;;;;;;8367143;28;20063;-93
2023/10/10 08:13:28;;;;;;;22.02;19.67;;;;;;;;;;8368011;28;20433;-93
2023/10/10 08:17:35;;;;;;;10.60;7.63;;;;;;;;;;8376985;28;20485;-91
2023/10/10 08:21:48;;;;;;;7.82;4.85;;;;;;;;;;8360888;28;20493;-93
2023/10/10 08:25:53;;;;;;;7.30;4.15;;;;;;;;;;8358614;28;20079;-93
2023/10/10 08:29:56;;;;;;;10.75;5.63;;;;;;;;;;8348705;28;20128;-92
2023/10/10 08:33:59;;;;;;;9.00;6.00;;;;;;;;;;8363083;28;20056;-92
2023/10/10 08:38:02;;;;;;;10.85;8.13;;;;;;;;;;8345955;28;20098;-91
2023/10/10 08:42:10;;;;;;;34.60;24.65;;;;;;;;;;8343100;28;20131;-91
2023/10/10 08:46:15;;;;;;;17.60;13.40;;;;;;;;;;8369561;28;20119;-93
2023/10/10 08:50:18;;;;;;;14.82;8.43;;;;;;;;;;8369100;28;20139;-92
2023/10/10 08:54:21;;;;;;;24.00;13.20;;;;;;;;;;8369579;28;20049;-93
2023/10/10 08:58:28;;;;;;;26.15;13.60;;;;;;;;;;8355521;28;20127;-93
2023/10/10 09:02:33;;;;;;;12.25;6.78;;;;;;;;;;8369142;28;20049;-92
2023/10/10 09:06:45;;;;;;;9.20;4.20;;;;;;;;;;8355738;28;20068;-94
2023/10/10 09:10:53;;;;;;;6.53;3.67;;;;;;;;;;8340617;28;20053;-92
2023/10/10 09:14:57;;;;;;;42.25;21.08;;;;;;;;;;8344665;28;20041;-93
2023/10/10 09:19:10;;;;;;;7.32;4.03;;;;;;;;;;8365402;28;20400;-91
2023/10/10 09:23:24;;;;;;;7.72;3.60;;;;;;;;;;8358843;28;20049;-91
2023/10/10 09:27:31;;;;;;;5.15;3.10;;;;;;;;;;8349536;28;20042;-92
2023/10/10 09:31:39;;;;;;;6.32;3.40;;;;;;;;;;8361358;28;20069;-93
2023/10/10 09:35:48;;;;;;;6.85;3.20;;;;;;;;;;8355429;28;20463;-92
2023/10/10 09:39:55;;;;;;;9.18;3.13;;;;;;;;;;8367539;28;20048;-92
2023/10/10 09:48:46;;;;;;;45.17;14.90;;;;;;;;;;8323006;28;20057;-92
2023/10/10 09:52:50;;;;;;;;;;;;;;;;;;8353398;28;20091;-93
2023/10/10 09:56:54;;;;;;;8.23;4.05;;;;;;;;;;8347720;28;19921;-93
2023/10/10 10:01:14;;;;;;;7.38;3.70;;;;;;;;;;8347009;28;20045;-91
2023/10/10 10:05:28;;;;;;;5.47;2.63;;;;;;;;;;8356158;28;20503;-91
2023/10/10 10:09:51;;;;;;;15.45;5.85;;;;;;;;;;8366444;28;20045;-92
2023/10/10 10:14:12;;;;;;;6.75;3.88;;;;;;;;;;8354146;28;20050;-94
2023/10/10 10:18:20;;;;;;;5.38;2.70;;;;;;;;;;8356035;28;20044;-92
2023/10/10 10:22:30;;;;;;;5.70;3.10;;;;;;;;;;8363113;28;20493;-91
2023/10/10 10:26:42;;;;;;;6.03;2.83;;;;;;;;;;8327148;28;20481;-91
2023/10/10 10:30:50;;;;;;;24.80;11.73;;;;;;;;;;8361314;28;20041;-94
2023/10/10 10:34:57;;;;;;;4.97;2.47;;;;;;;;;;8358834;28;20037;-92
2023/10/10 10:39:25;;;;;;;18.38;5.30;;;;;;;;;;8333241;28;20045;-92
2023/10/10 10:43:38;;;;;;;18.83;7.28;;;;;;;;;;8348638;28;20053;-93
2023/10/10 10:47:45;;;;;;;14.00;3.30;;;;;;;;;;8333320;28;20060;-94
2023/10/10 10:51:50;;;;;;;4.32;2.45;;;;;;;;;;8349010;28;20477;-92
2023/10/10 10:56:06;;;;;;;3.35;2.17;;;;;;;;;;8344098;28;20052;-90
2023/10/10 11:00:27;;;;;;;5.00;2.40;;;;;;;;;;8354736;28;20075;-91
2023/10/10 11:04:44;;;;;;;22.93;5.87;;;;;;;;;;8350912;28;20045;-93
2023/10/10 11:08:52;;;;;;;7.00;3.55;;;;;;;;;;8355513;28;20402;-92
2023/10/10 11:13:07;;;;;;;5.18;2.63;;;;;;;;;;8344713;28;20120;-94
2023/10/10 11:17:17;;;;;;;4.13;2.40;;;;;;;;;;8354070;28;20053;-91
2023/10/10 11:21:27;;;;;;;10.70;5.18;;;;;;;;;;8340834;28;20049;-92
2023/10/10 11:25:41;;;;;;;4.97;2.30;;;;;;;;;;8353909;28;20143;-92
2023/10/10 11:30:08;;;;;;;4.63;2.30;;;;;;;;;;8341845;28;20041;-93
2023/10/10 11:38:40;;;;;;;3.80;2.20;;;;;;;;;;8362234;28;20052;-92
2023/10/10 11:43:03;;;;;;;5.00;2.30;;;;;;;;;;8360772;28;20475;-94
2023/10/10 11:47:24;;;;;;;4.55;2.00;;;;;;;;;;8344017;28;20052;-92
2023/10/10 11:51:46;;;;;;;8.17;3.60;;;;;;;;;;8360314;28;20106;-93
2023/10/10 11:56:01;;;;;;;32.17;14.82;;;;;;;;;;8360170;28;20424;-91
2023/10/10 12:00:07;;;;;;;3.60;2.30;;;;;;;;;;8344205;28;20045;-90
2023/10/10 12:04:30;;;;;;;4.03;2.28;;;;;;;;;;8326762;28;20057;-94
2023/10/10 12:08:36;;;;;;;5.63;3.17;;;;;;;;;;8343134;28;20117;-93
2023/10/10 12:12:39;;;;;;;5.60;2.88;;;;;;;;;;8346750;28;20057;-93
2023/10/10 12:16:42;;;;;;;5.00;2.85;;;;;;;;;;8360395;28;20053;-91
2023/10/10 12:20:46;;;;;;;3.90;2.20;;;;;;;;;;8358475;28;20052;-93
2023/10/10 12:24:50;;;;;;;4.03;2.40;;;;;;;;;;8359299;28;20633;-93
2023/10/10 12:28:54;;;;;;;5.03;2.67;;;;;;;;;;8358841;28;20049;-92
2023/10/10 12:32:59;;;;;;;4.63;2.58;;;;;;;;;;8354759;28;20159;-92
2023/10/10 12:37:06;;;;;;;5.55;2.90;;;;;;;;;;8353724;28;20114;-91
2023/10/10 12:41:11;;;;;;;8.95;3.00;;;;;;;;;;8345185;28;20048;-93
2023/10/10 12:45:17;;;;;;;7.95;2.67;;;;;;;;;;8343206;28;20049;-92
2023/10/10 12:49:28;;;;;;;4.28;2.65;;;;;;;;;;8361153;28;20073;-93
2023/10/10 12:53:39;;;;;;;4.47;2.50;;;;;;;;;;8363134;28;20053;-93
2023/10/10 12:57:42;;;;;;;6.20;2.65;;;;;;;;;;8367543;28;20076;-93
2023/10/10 13:01:45;;;;;;;4.70;2.50;;;;;;;;;;8350169;28;20052;-94
2023/10/10 13:05:58;;;;;;;4.20;2.55;;;;;;;;;;8361439;28;20042;-93
2023/10/10 13:10:10;;;;;;;4.45;2.47;;;;;;;;;;8365837;28;20044;-92
2023/10/10 13:14:18;;;;;;;4.40;2.40;;;;;;;;;;8369437;28;20052;-93
2023/10/10 13:18:22;;;;;;;4.63;2.40;;;;;;;;;;8361346;28;20041;-92
2023/10/10 13:22:28;;;;;;;5.03;2.60;;;;;;;;;;8371138;28;20136;-93
2023/10/10 13:26:36;;;;;;;5.50;2.38;;;;;;;;;;8338614;28;20409;-93
2023/10/10 13:30:40;;;;;;;6.47;2.40;;;;;;;;;;8367741;28;20060;-92
2023/10/10 13:34:46;;;;;;;4.40;2.40;;;;;;;;;;8354541;28;20056;-94
2023/10/10 13:38:51;;;;;;;4.78;2.40;;;;;;;;;;8364955;28;20045;-93
2023/10/10 13:42:58;;;;;;;6.82;2.60;;;;;;;;;;8352527;28;20501;-92
2023/10/10 13:47:02;;;;;;;5.53;2.35;;;;;;;;;;8352054;28;20073;-94
2023/10/10 13:51:07;;;;;;;6.07;2.47;;;;;;;;;;8366408;28;20447;-92
2023/10/10 13:55:11;;;;;;;703.42;251.75;;;;;;;;;;8348070;28;20056;-94
2023/10/10 13:59:17;;;;;;;25.67;14.90;;;;;;;;;;8376603;28;20515;-91
2023/10/10 14:03:28;;;;;;;90.82;54.42;;;;;;;;;;8360801;28;20049;-94
2023/10/10 14:07:32;;;;;;;8.10;4.57;;;;;;;;;;8359106;28;20077;-93
2023/10/10 14:11:35;;;;;;;10.70;6.57;;;;;;;;;;8367065;28;20041;-92
2023/10/10 14:15:54;;;;;;;4.90;2.42;;;;;;;;;;8366859;28;20048;-93
2023/10/10 14:19:58;;;;;;;6.20;4.18;;;;;;;;;;8366366;28;20041;-91
2023/10/10 14:24:04;;;;;;;3.30;2.33;;;;;;;;;;8342389;28;20061;-92
2023/10/10 14:28:08;;;;;;;4.60;2.90;;;;;;;;;;8355359;28;20077;-92
2023/10/10 14:32:14;;;;;;;3.42;2.33;;;;;;;;;;8339422;28;20701;-92
2023/10/10 14:36:18;;;;;;;22.33;12.82;;;;;;;;;;8356116;28;20485;-92
2023/10/10 14:40:23;;;;;;;9.48;5.00;;;;;;;;;;8362211;28;20144;-92
2023/10/10 14:44:26;;;;;;;27.42;15.10;;;;;;;;;;8347353;28;20052;-92
2023/10/10 14:48:33;;;;;;;14.38;10.00;;;;;;;;;;8357387;28;20077;-92
2023/10/10 14:52:40;;;;;;;13.73;8.23;;;;;;;;;;8324555;28;20405;-92
2023/10/10 14:56:45;;;;;;;26.20;18.65;;;;;;;;;;8331966;28;20114;-93
2023/10/10 15:00:49;;;;;;;18.58;12.70;;;;;;;;;;8358428;28;20056;-92
2023/10/10 15:04:55;;;;;;;32.40;22.25;;;;;;;;;;8313771;28;20128;-93
2023/10/10 15:09:13;;;;;;;20.08;14.55;;;;;;;;;;8330416;28;20049;-92
2023/10/10 15:13:30;;;;;;;16.42;11.13;;;;;;;;;;8309037;28;20103;-92
2023/10/10 15:17:34;;;;;;;20.88;15.65;;;;;;;;;;8322245;28;20076;-92
2023/10/10 15:21:47;;;;;;;10.32;8.38;;;;;;;;;;8324190;28;20122;-93
2023/10/10 15:26:17;;;;;;;9.75;6.95;;;;;;;;;;8319226;28;20037;-92
2023/10/10 15:30:20;;;;;;;14.90;8.65;;;;;;;;;;8305294;28;20385;-91
2023/10/10 15:34:25;;;;;;;10.10;7.50;;;;;;;;;;8331931;28;20041;-92
2023/10/10 15:38:30;;;;;;;7.93;5.95;;;;;;;;;;8326751;28;20062;-92
2023/10/10 15:42:34;;;;;;;9.55;7.18;;;;;;;;;;8325718;28;20049;-91
2023/10/10 15:46:39;;;;;;;11.50;8.35;;;;;;;;;;8325384;28;20069;-91
2023/10/10 15:50:46;;;;;;;16.95;10.23;;;;;;;;;;8342791;28;20596;-93
2023/10/10 15:54:51;;;;;;;28.08;15.15;;;;;;;;;;8352714;28;20443;-93
2023/10/10 15:58:57;;;;;;;8.20;4.10;;;;;;;;;;8361473;28;20049;-93
2023/10/10 16:03:00;;;;;;;5.13;3.25;;;;;;;;;;8349743;28;20045;-93
2023/10/10 16:07:06;;;;;;;14.57;8.30;;;;;;;;;;8354398;28;20074;-94
2023/10/10 16:11:12;;;;;;;18.95;12.18;;;;;;;;;;8360548;28;20115;-91
2023/10/10 16:15:18;;;;;;;14.25;9.75;;;;;;;;;;8356792;28;20041;-94
2023/10/10 16:19:25;;;;;;;14.32;7.93;;;;;;;;;;8362262;28;20049;-93
2023/10/10 16:23:30;;;;;;;6.45;4.38;;;;;;;;;;8334861;28;20051;-93
2023/10/10 16:27:35;;;;;;;10.13;6.60;;;;;;;;;;8357637;28;20098;-92
2023/10/10 16:31:43;;;;;;;13.20;7.28;;;;;;;;;;8365898;28;20053;-93
2023/10/10 16:35:47;;;;;;;20.88;12.07;;;;;;;;;;8357852;28;20045;-91
2023/10/10 16:39:58;;;;;;;29.27;15.60;;;;;;;;;;8358418;28;20395;-91
2023/10/10 16:44:11;;;;;;;28.27;14.82;;;;;;;;;;8360114;28;20128;-91
2023/10/10 16:48:24;;;;;;;233.93;80.97;;;;;;;;;;8346822;28;20072;-92
2023/10/10 16:52:28;;;;;;;45.33;21.75;;;;;;;;;;8371417;28;20759;-91
2023/10/10 16:56:34;;;;;;;40.22;16.08;;;;;;;;;;8371148;28;20041;-93
2023/10/10 17:00:39;;;;;;;28.85;16.63;;;;;;;;;;8370292;28;20040;-92
2023/10/10 17:04:43;;;;;;;19.38;11.45;;;;;;;;;;8366670;28;20053;-91
2023/10/10 17:08:47;;;;;;;14.65;8.23;;;;;;;;;;8366129;28;20049;-93
2023/10/10 17:12:51;;;;;;;26.50;15.13;;;;;;;;;;8361527;28;20745;-92
2023/10/10 17:16:56;;;;;;;11.70;7.30;;;;;;;;;;8357186;28;20048;-93
2023/10/10 17:21:02;;;;;;;19.02;11.43;;;;;;;;;;8349620;28;20068;-90
2023/10/10 17:25:08;;;;;;;13.23;9.07;;;;;;;;;;8354022;28;20143;-92
2023/10/10 17:29:13;;;;;;;12.98;8.07;;;;;;;;;;8356288;28;20458;-92
2023/10/10 17:33:20;;;;;;;25.25;13.43;;;;;;;;;;8357731;28;20045;-91
2023/10/10 17:37:30;;;;;;;25.83;15.52;;;;;;;;;;8358913;28;20045;-92
2023/10/10 17:41:38;;;;;;;42.63;24.83;;;;;;;;;;8343241;28;20254;-92
2023/10/10 17:45:45;;;;;;;15.32;9.43;;;;;;;;;;8364597;28;20044;-93
2023/10/10 17:50:00;;;;;;;23.67;14.10;;;;;;;;;;8362422;28;20057;-92
2023/10/10 17:54:15;;;;;;;49.47;22.58;;;;;;;;;;8367675;28;20048;-93
2023/10/10 17:58:18;;;;;;;34.45;17.77;;;;;;;;;;8382675;28;20051;-93
2023/10/10 18:02:28;;;;;;;49.00;24.27;;;;;;;;;;8352296;28;20056;-92
2023/10/10 18:06:34;;;;;;;20.27;10.68;;;;;;;;;;8354507;28;20135;-91
2023/10/10 18:10:38;;;;;;;21.50;10.38;;;;;;;;;;8363350;28;20086;-91
2023/10/10 18:14:41;;;;;;;20.75;11.43;;;;;;;;;;8364059;28;20390;-91
2023/10/10 18:18:45;;;;;;;14.70;8.55;;;;;;;;;;8362766;28;20416;-92
2023/10/10 18:22:51;;;;;;;15.43;9.02;;;;;;;;;;8354468;28;20073;-93
2023/10/10 18:26:55;;;;;;;22.65;15.48;;;;;;;;;;8366881;28;20423;-92
2023/10/10 18:30:59;;;;;;;41.55;25.48;;;;;;;;;;8367322;28;20127;-92
2023/10/10 18:35:03;;;;;;;15.95;9.60;;;;;;;;;;8379997;28;20040;-93
2023/10/10 18:39:12;;;;;;;22.33;11.65;;;;;;;;;;8362762;28;20046;-92
2023/10/10 18:43:21;;;;;;;24.27;10.90;;;;;;;;;;8368696;28;20127;-93
2023/10/10 18:47:24;;;;;;;23.95;12.30;;;;;;;;;;8367950;28;20122;-93
2023/10/10 18:51:33;;;;;;;19.58;9.93;;;;;;;;;;8355809;28;20088;-93
2023/10/10 18:55:39;;;;;;;28.17;15.50;;;;;;;;;;8352785;28;20048;-92
2023/10/10 18:59:45;;;;;;;22.50;11.13;;;;;;;;;;8344046;28;20547;-92
2023/10/10 19:03:58;;;;;;;19.33;10.35;;;;;;;;;;8352398;28;20041;-92
2023/10/10 19:08:27;;;;;;;25.13;11.13;;;;;;;;;;8356754;28;20385;-92
2023/10/10 19:12:35;;;;;;;28.98;14.90;;;;;;;;;;8364714;28;20510;-94
2023/10/10 19:16:46;;;;;;;25.73;12.93;;;;;;;;;;8347018;28;20055;-92
2023/10/10 19:20:51;;;;;;;23.00;11.52;;;;;;;;;;8350868;28;20041;-92
2023/10/10 19:24:55;;;;;;;24.45;12.82;;;;;;;;;;8357539;28;20510;-91
2023/10/10 19:29:03;;;;;;;21.55;11.05;;;;;;;;;;8348788;28;20041;-91
2023/10/10 19:33:07;;;;;;;24.38;11.80;;;;;;;;;;8342714;28;20122;-92
2023/10/10 19:37:13;;;;;;;26.73;12.15;;;;;;;;;;8349562;28;20048;-92
2023/10/10 19:41:17;;;;;;;29.27;13.30;;;;;;;;;;8353442;28;20085;-95
2023/10/10 19:45:25;;;;;;;22.88;12.07;;;;;;;;;;8360990;28;20053;-93
2023/10/10 19:49:34;;;;;;;29.73;14.35;;;;;;;;;;8359717;28;20434;-93
2023/10/10 19:53:38;;;;;;;27.65;13.65;;;;;;;;;;8345555;28;20076;-93
2023/10/10 19:57:41;;;;;;;30.42;14.35;;;;;;;;;;8338754;28;20080;-92
2023/10/10 20:01:57;;;;;;;27.65;13.90;;;;;;;;;;8362353;28;20480;-95
2023/10/10 20:06:06;;;;;;;27.25;12.93;;;;;;;;;;8361483;28;20072;-94
2023/10/10 20:10:15;;;;;;;33.58;15.48;;;;;;;;;;8366761;28;20044;-93
2023/10/10 20:14:18;;;;;;;31.67;16.67;;;;;;;;;;8365082;28;20068;-94
2023/10/10 20:18:24;;;;;;;37.10;15.75;;;;;;;;;;8400217;28;20048;-91
2023/10/10 20:22:31;;;;;;;34.30;15.85;;;;;;;;;;8377642;28;20069;-93
2023/10/10 20:26:36;;;;;;;45.78;19.73;;;;;;;;;;8358050;28;20126;-91
2023/10/10 20:30:42;;;;;;;36.40;17.60;;;;;;;;;;8371326;28;20100;-92
2023/10/10 20:34:47;;;;;;;32.63;15.25;;;;;;;;;;8357932;28;20045;-92
2023/10/10 20:38:50;;;;;;;58.17;29.05;;;;;;;;;;8370734;28;20143;-93
2023/10/10 20:42:54;;;;;;;55.88;32.55;;;;;;;;;;8370424;28;20041;-94
2023/10/10 20:46:57;;;;;;;31.35;16.42;;;;;;;;;;8355753;28;20041;-93
2023/10/10 20:51:03;;;;;;;32.47;13.57;;;;;;;;;;8326682;28;20517;-92
2023/10/10 20:55:07;;;;;;;36.80;20.30;;;;;;;;;;8325498;28;20460;-95
2023/10/10 20:59:10;;;;;;;33.85;17.92;;;;;;;;;;8324890;28;20478;-94
2023/10/10 21:03:15;;;;;;;35.00;19.63;;;;;;;;;;8339005;28;20068;-93
2023/10/10 21:07:22;;;;;;;41.05;23.35;;;;;;;;;;8337549;28;20128;-94
2023/10/10 21:11:25;;;;;;;29.67;17.33;;;;;;;;;;8337140;28;20033;-93
2023/10/10 21:15:28;;;;;;;30.45;15.02;;;;;;;;;;8309487;28;20073;-94
2023/10/10 21:19:31;;;;;;;32.88;16.55;;;;;;;;;;8317329;28;20045;-94
2023/10/10 21:23:38;;;;;;;38.13;21.20;;;;;;;;;;8298667;28;20050;-93
2023/10/10 21:27:43;;;;;;;31.48;15.85;;;;;;;;;;8316263;28;20046;-92
2023/10/10 21:31:47;;;;;;;31.35;14.35;;;;;;;;;;8317470;28;20046;-94
2023/10/10 21:35:50;;;;;;;34.45;17.50;;;;;;;;;;8325830;28;20119;-94
2023/10/10 21:39:54;;;;;;;30.73;14.32;;;;;;;;;;8336277;28;20105;-93
2023/10/10 21:43:57;;;;;;;32.25;14.68;;;;;;;;;;8336848;28;20059;-93
2023/10/10 21:48:04;;;;;;;35.50;15.70;;;;;;;;;;8336514;28;20052;-94
2023/10/10 21:52:09;;;;;;;37.50;16.15;;;;;;;;;;8368465;28;20557;-94
2023/10/10 21:56:13;;;;;;;36.20;16.95;;;;;;;;;;8355256;28;20049;-94
2023/10/10 22:00:19;;;;;;;32.58;16.17;;;;;;;;;;8359879;28;20386;-93
2023/10/10 22:04:23;;;;;;;34.78;16.05;;;;;;;;;;8363904;28;20098;-94
2023/10/10 22:08:26;;;;;;;31.88;15.68;;;;;;;;;;8355005;28;20124;-93
2023/10/10 22:12:38;;;;;;;31.65;15.95;;;;;;;;;;8354515;28;20160;-95
2023/10/10 22:16:44;;;;;;;33.70;15.52;;;;;;;;;;8355119;28;20041;-93
2023/10/10 22:20:47;;;;;;;33.33;15.43;;;;;;;;;;8354517;28;20112;-95
2023/10/10 22:24:50;;;;;;;29.73;14.60;;;;;;;;;;8377358;28;20077;-92
2023/10/10 22:28:55;;;;;;;33.35;14.95;;;;;;;;;;8370545;28;20040;-93
2023/10/10 22:32:58;;;;;;;31.73;14.50;;;;;;;;;;8354102;28;20063;-93
2023/10/10 22:37:02;;;;;;;28.75;14.88;;;;;;;;;;8354318;28;20048;-94
2023/10/10 22:41:05;;;;;;;35.10;16.15;;;;;;;;;;8367405;28;20401;-93
2023/10/10 22:45:19;;;;;;;32.22;16.20;;;;;;;;;;8340991;28;20473;-94
2023/10/10 22:49:22;;;;;;;36.53;16.88;;;;;;;;;;8367016;28;20485;-91
2023/10/10 22:53:25;;;;;;;40.55;17.63;;;;;;;;;;8335907;28;20052;-95
2023/10/10 22:57:29;;;;;;;39.35;16.05;;;;;;;;;;8353619;28;20405;-94
2023/10/10 23:01:33;;;;;;;38.05;17.48;;;;;;;;;;8328756;28;20075;-93
2023/10/10 23:05:38;;;;;;;34.03;16.70;;;;;;;;;;8360031;28;20408;-93
2023/10/10 23:09:41;;;;;;;37.38;17.13;;;;;;;;;;8367311;28;20048;-94
2023/10/10 23:13:45;;;;;;;37.40;16.08;;;;;;;;;;8354667;28;20114;-94
2023/10/10 23:17:50;;;;;;;34.58;16.67;;;;;;;;;;8366773;28;20047;-95
2023/10/10 23:21:52;;;;;;;38.15;17.70;;;;;;;;;;8367301;28;20048;-93
2023/10/10 23:25:55;;;;;;;38.92;16.98;;;;;;;;;;8380387;28;20501;-93
2023/10/10 23:29:59;;;;;;;36.92;16.50;;;;;;;;;;8343452;28;20076;-94
2023/10/10 23:34:04;;;;;;;35.25;16.90;;;;;;;;;;8342205;28;20045;-95
2023/10/10 23:38:09;;;;;;;37.53;17.38;;;;;;;;;;8335178;28;20160;-94
2023/10/10 23:42:13;;;;;;;36.65;16.50;;;;;;;;;;8367043;28;20078;-96
2023/10/10 23:46:21;;;;;;;41.67;16.45;;;;;;;;;;8368813;28;20049;-94
2023/10/10 23:50:38;;;;;;;32.03;15.32;;;;;;;;;;8341664;28;20067;-94
2023/10/10 23:54:45;;;;;;;31.08;15.25;;;;;;;;;;8369101;28;20114;-92
2023/10/10 23:58:51;;;;;;;36.53;16.75;;;;;;;;;;8359738;28;20088;-92
